Mc Guire Air Force Base
KWRI : now visible

Airfield :











YOU CAN JOIN US ON...

 
LOGIN :

Register | Disclaimer

   EN    FR    IT 

 









Legend :    VFR   Marginal VFR   IFR   Intensive IFR   Very Intensive IFR
Visi :
Ceiling :
>= 8 km
>= 3000ft
5 to 8 km
1000 to 3000 ft
1500m to 5 km
500 to 1000 ft
800 to 1500m
200 to 500 ft
< 800m
< 200 ft
Symbols :   Thunderstorms  Fog  Heavy snow  Heavy precipitations  Wind > 20 kt







- Airport Elevation : 131 ft
- IATA code : WRI


KWRI - Mc Guire Air Force Base

CURRENT METAR :
  • 221756Z 27004KT 10SM CLR 23/03 A3021 RMK AO2A SLP229 T02310031 10231 20152 56009

EXPIRED METARs :
  • 221656Z 00000KT 10SM FEW190 22/03 A3021 RMK AO2A SLP229 T02210027
  • 221556Z 33005KT 10SM CLR 22/03 A3023 RMK AO2A SLP236 T02170034

TAF TAF KWRI
Valid from the 22 at 18:00 until the 24 at 00:00 UTC


221800Z 2218/2324 VRB06KT 9999 FEW200 QNH3021INS
BECMG 2311/2312 20015G20KT 9000 -SHRA SCT020 QNH3015INS
BECMG 2317/2318 22015G20KT 9999 NSW FEW020 QNH2995INS
BECMG 2322/2323 20009KT 9999 SCT025 QNH2989INS TX25/2318Z TN13/2310Z
KZNY FIR / North America



MET'MAP, your aeronautical weather chart ! - Copyright ORBIFLY December 2007 - Disclaimer

ORBIFLY MET'MAP TEAM :

Programming & Development : Alexandra Zaïnal
Concept & Development : Baudouin d'Aumeries
Co-Development & Prog : Marc-Olivier Méhu
Technical & hardware support : Manuel Goepfert

Contact : metmap@orbifly.com




SOURCES & CREDITS :

   NOAA       Earth
Advisory